Time;durP1;ratioP1;P1;durP2;ratioP2;P2;SDS_P1;SDS_P2;PMS_P1;PMS_P2;Temp;Humidity;BMP_temperature;BMP_pressure;BME280_temperature;BME280_humidity;BME280_pressure;Samples;Min_cycle;Max_cycle;Signal;HPM_P1;HPM_P2
2022/04/03 00:01:08;;;;;;;12.27;11.05;;;;;;;;;;5057062;28;20047;-83
2022/04/03 00:03:36;;;;;;;14.25;12.75;;;;;;;;;;5080669;28;20434;-86
2022/04/03 00:06:04;;;;;;;13.85;12.45;;;;;;;;;;5056417;28;20048;-83
2022/04/03 00:08:41;;;;;;;11.80;10.57;;;;;;;;;;5063411;28;20051;-83
2022/04/03 00:11:10;;;;;;;11.63;10.63;;;;;;;;;;5063318;28;20051;-85
2022/04/03 00:13:37;;;;;;;12.57;11.27;;;;;;;;;;5078036;28;20037;-83
2022/04/03 00:16:05;;;;;;;13.10;11.68;;;;;;;;;;5078530;28;20036;-83
2022/04/03 00:18:33;;;;;;;11.23;10.10;;;;;;;;;;5103783;28;20040;-83
2022/04/03 00:21:02;;;;;;;10.35;9.35;;;;;;;;;;5104433;28;20052;-83
2022/04/03 00:23:30;;;;;;;11.98;10.88;;;;;;;;;;5110693;28;20039;-83
2022/04/03 00:25:57;;;;;;;12.48;11.15;;;;;;;;;;5074426;28;20078;-83
2022/04/03 00:28:28;;;;;;;12.25;10.95;;;;;;;;;;5087536;28;20112;-81
2022/04/03 00:30:56;;;;;;;11.13;9.70;;;;;;;;;;5089733;28;20028;-85
2022/04/03 00:33:26;;;;;;;10.45;9.40;;;;;;;;;;5097478;28;20036;-84
2022/04/03 00:35:53;;;;;;;10.70;9.73;;;;;;;;;;5075432;28;20049;-84
2022/04/03 00:38:22;;;;;;;11.82;10.57;;;;;;;;;;5070668;28;20051;-83
2022/04/03 00:40:50;;;;;;;10.40;9.40;;;;;;;;;;5070733;28;20045;-83
2022/04/03 00:43:19;;;;;;;12.18;10.90;;;;;;;;;;5053891;28;20150;-83
2022/04/03 00:45:49;;;;;;;10.70;9.70;;;;;;;;;;5080044;28;20057;-83
2022/04/03 00:48:18;;;;;;;10.98;9.98;;;;;;;;;;5063152;28;20044;-83
2022/04/03 00:50:46;;;;;;;11.10;10.00;;;;;;;;;;5062800;28;20047;-83
2022/04/03 00:53:13;;;;;;;9.75;8.85;;;;;;;;;;5081788;28;20044;-83
2022/04/03 00:55:44;;;;;;;11.10;10.00;;;;;;;;;;5084136;28;20040;-84
2022/04/03 00:58:11;;;;;;;10.32;9.32;;;;;;;;;;5087832;28;20118;-85
2022/04/03 01:00:39;;;;;;;8.68;7.82;;;;;;;;;;5081305;28;20036;-85
2022/04/03 01:03:09;;;;;;;12.30;11.20;;;;;;;;;;5083342;28;20044;-85
2022/04/03 01:05:37;;;;;;;11.15;10.15;;;;;;;;;;5084204;28;20465;-83
2022/04/03 01:08:07;;;;;;;11.20;10.07;;;;;;;;;;5084269;28;20075;-83
2022/04/03 01:10:36;;;;;;;9.68;8.68;;;;;;;;;;5083930;28;20064;-83
2022/04/03 01:13:03;;;;;;;8.98;8.18;;;;;;;;;;5084009;28;20044;-83
2022/04/03 01:15:33;;;;;;;10.70;9.60;;;;;;;;;;5059895;28;20515;-84
2022/04/03 01:18:00;;;;;;;10.27;9.38;;;;;;;;;;5105301;28;20040;-84
2022/04/03 01:20:28;;;;;;;9.50;8.60;;;;;;;;;;5086953;28;20020;-85
2022/04/03 01:22:58;;;;;;;10.23;9.23;;;;;;;;;;5108545;28;20096;-84
2022/04/03 01:25:26;;;;;;;9.13;8.32;;;;;;;;;;5091730;28;20127;-85
2022/04/03 01:27:53;;;;;;;13.18;11.73;;;;;;;;;;5101310;28;20048;-85
2022/04/03 01:30:22;;;;;;;11.38;9.77;;;;;;;;;;5081712;28;20468;-85
2022/04/03 01:32:50;;;;;;;10.38;8.95;;;;;;;;;;5071923;28;20036;-85
2022/04/03 01:35:20;;;;;;;12.27;10.07;;;;;;;;;;5087808;28;20079;-85
2022/04/03 01:37:51;;;;;;;10.60;9.20;;;;;;;;;;5084651;28;20086;-85
2022/04/03 01:40:20;;;;;;;9.65;8.75;;;;;;;;;;5065018;28;20513;-84
2022/04/03 01:42:54;;;;;;;10.75;9.65;;;;;;;;;;5072527;28;20732;-85
2022/04/03 01:45:21;;;;;;;12.55;11.38;;;;;;;;;;5041378;28;20102;-85
2022/04/03 01:47:49;;;;;;;12.05;10.20;;;;;;;;;;5072101;28;21496;-85
2022/04/03 01:50:16;;;;;;;10.30;9.30;;;;;;;;;;5058278;28;20044;-85
2022/04/03 01:52:43;;;;;;;10.13;9.18;;;;;;;;;;5068115;28;20044;-86
2022/04/03 01:55:11;;;;;;;10.50;9.50;;;;;;;;;;5076564;28;20032;-83
2022/04/03 01:57:38;;;;;;;10.98;9.82;;;;;;;;;;5056398;28;20063;-85
2022/04/03 02:00:06;;;;;;;11.25;10.18;;;;;;;;;;5061430;28;20039;-85
2022/04/03 02:02:35;;;;;;;10.50;9.50;;;;;;;;;;5076717;28;20105;-85
2022/04/03 02:05:03;;;;;;;10.95;9.93;;;;;;;;;;5057962;28;20099;-85
2022/04/03 02:07:31;;;;;;;10.32;9.35;;;;;;;;;;5060276;28;20048;-86
2022/04/03 02:09:58;;;;;;;9.70;8.50;;;;;;;;;;5058912;28;20047;-86
2022/04/03 02:12:25;;;;;;;10.57;9.60;;;;;;;;;;5059849;28;20055;-85
2022/04/03 02:14:55;;;;;;;11.55;10.35;;;;;;;;;;5076511;28;20039;-85
2022/04/03 02:17:24;;;;;;;9.57;8.73;;;;;;;;;;5077327;28;20032;-84
2022/04/03 02:19:51;;;;;;;8.95;8.15;;;;;;;;;;5079090;28;20044;-83
2022/04/03 02:22:22;;;;;;;11.67;10.57;;;;;;;;;;5059762;28;20044;-85
2022/04/03 02:24:50;;;;;;;9.68;8.77;;;;;;;;;;5079641;28;20036;-83
2022/04/03 02:27:17;;;;;;;9.63;8.82;;;;;;;;;;5078424;28;20056;-84
2022/04/03 02:29:45;;;;;;;10.02;8.93;;;;;;;;;;5080225;28;20093;-84
2022/04/03 02:32:12;;;;;;;10.05;9.00;;;;;;;;;;5061729;28;20143;-84
2022/04/03 02:34:39;;;;;;;10.60;9.60;;;;;;;;;;5079931;28;20044;-84
2022/04/03 02:37:11;;;;;;;11.23;10.13;;;;;;;;;;5080522;28;20036;-84
2022/04/03 02:39:38;;;;;;;10.50;8.50;;;;;;;;;;5060459;28;20052;-85
2022/04/03 02:42:06;;;;;;;10.23;9.27;;;;;;;;;;5066371;28;20206;-84
2022/04/03 02:44:34;;;;;;;11.52;10.48;;;;;;;;;;5076137;28;20527;-84
2022/04/03 02:47:02;;;;;;;10.77;9.77;;;;;;;;;;5066198;28;20036;-85
2022/04/03 02:49:29;;;;;;;9.27;8.48;;;;;;;;;;5087920;28;20075;-85
2022/04/03 02:51:56;;;;;;;11.85;10.70;;;;;;;;;;5082873;28;20032;-85
2022/04/03 02:54:24;;;;;;;10.88;9.93;;;;;;;;;;5073115;28;20036;-84
2022/04/03 02:56:51;;;;;;;11.98;10.75;;;;;;;;;;5067426;28;20472;-84
2022/04/03 02:59:18;;;;;;;12.00;10.68;;;;;;;;;;5068690;28;20066;-85
2022/04/03 03:01:47;;;;;;;11.80;10.70;;;;;;;;;;5068454;28;20036;-85
2022/04/03 03:04:14;;;;;;;10.32;9.43;;;;;;;;;;5085458;28;20053;-85
2022/04/03 03:06:42;;;;;;;11.57;10.48;;;;;;;;;;5087614;28;20036;-84
2022/04/03 03:09:11;;;;;;;11.43;10.25;;;;;;;;;;5055303;28;20086;-83
2022/04/03 03:11:39;;;;;;;11.30;10.30;;;;;;;;;;5091580;28;20073;-83
2022/04/03 03:14:06;;;;;;;11.15;10.13;;;;;;;;;;5075210;28;20029;-84
2022/04/03 03:16:34;;;;;;;11.93;10.80;;;;;;;;;;5073148;28;20576;-84
2022/04/03 03:19:02;;;;;;;11.25;10.05;;;;;;;;;;5082555;28;20037;-84
2022/04/03 03:21:29;;;;;;;11.20;9.95;;;1.90;99.90;;;;;;5055127;28;20052;-83
2022/04/03 03:23:56;;;;;;;10.85;9.85;;;1.70;99.90;;;;;;5071173;28;20040;-84
2022/04/03 03:26:23;;;;;;;9.80;9.00;;;1.80;99.90;;;;;;5093060;28;20055;-84
2022/04/03 03:28:49;;;;;;;11.52;10.52;;;1.70;99.90;;;;;;5088479;28;20045;-84
2022/04/03 03:31:16;;;;;;;10.90;9.90;;;1.80;99.90;;;;;;5082004;28;20036;-84
2022/04/03 03:33:43;;;;;;;11.98;10.85;;;1.90;99.90;;;;;;5072575;28;20048;-84
2022/04/03 03:36:11;;;;;;;12.57;11.38;;;1.90;99.90;;;;;;5092088;28;20646;-85
2022/04/03 03:38:38;;;;;;;11.50;10.23;;;1.90;99.90;;;;;;5090165;28;20135;-84
2022/04/03 03:41:05;;;;;;;11.35;10.18;;;;;;;;;;5079592;28;20036;-85
2022/04/03 03:43:32;;;;;;;12.15;11.00;;;;;;;;;;5092791;28;20479;-85
2022/04/03 03:46:02;;;;;;;11.40;10.27;;;;;;;;;;5077710;28;20105;-84
2022/04/03 03:48:29;;;;;;;12.13;10.93;;;;;;;;;;5080236;28;20434;-85
2022/04/03 03:50:56;;;;;;;9.68;8.77;;;;;;;;;;5043777;28;20040;-84
2022/04/03 03:53:24;;;;;;;13.20;10.88;;;;;;;;;;5091289;28;20454;-85
2022/04/03 03:55:52;;;;;;;11.40;10.30;;;;;;;;;;5057081;28;20459;-84
2022/04/03 03:58:19;;;;;;;10.27;9.32;;;;;;;;;;5058393;28;20040;-85
2022/04/03 04:00:47;;;;;;;10.57;9.65;;;;;;;;;;5060981;28;20055;-84
2022/04/03 04:03:15;;;;;;;11.13;10.13;;;;;;;;;;5116042;28;20044;-84
2022/04/03 04:05:42;;;;;;;10.15;9.25;;;;;;;;;;5100426;28;20035;-84
2022/04/03 04:08:10;;;;;;;12.60;11.38;;;;;;;;;;5100690;28;20028;-84
2022/04/03 04:10:37;;;;;;;13.00;11.75;;;;;;;;;;5105319;28;20028;-84
2022/04/03 04:13:04;;;;;;;10.70;9.57;;;;;;;;;;5119242;28;20054;-84
2022/04/03 04:15:31;;;;;;;11.57;10.57;;;;;;;;;;5067104;28;20051;-84
2022/04/03 04:17:59;;;;;;;9.68;8.77;;;;;;;;;;5081436;28;20045;-84
2022/04/03 04:20:27;;;;;;;13.32;11.50;;;;;;;;;;5065071;28;20086;-85
2022/04/03 04:22:54;;;;;;;11.35;10.32;;;;;;;;;;5065520;28;20117;-84
2022/04/03 04:25:22;;;;;;;11.55;10.38;;;;;;;;;;5074659;28;20044;-84
2022/04/03 04:27:49;;;;;;;11.90;10.73;;;;;;;;;;5082532;28;20123;-85
2022/04/03 04:30:17;;;;;;;12.35;11.15;;;;;;;;;;5077704;28;20102;-84
2022/04/03 04:32:45;;;;;;;12.13;11.10;;;;;;;;;;5067559;28;20048;-85
2022/04/03 04:35:13;;;;;;;11.40;10.35;;;;;;;;;;5087630;28;20044;-85
2022/04/03 04:37:41;;;;;;;12.95;11.80;;;;;;;;;;5092400;28;20036;-85
2022/04/03 04:40:09;;;;;;;12.15;11.05;;;;;;;;;;5090561;28;20036;-84
2022/04/03 04:42:36;;;;;;;12.38;11.13;;;;;;;;;;5080963;28;20047;-84
2022/04/03 04:45:06;;;;;;;11.52;10.35;;;;;;;;;;5071455;28;20069;-84
2022/04/03 04:47:35;;;;;;;11.73;10.45;;;;;;;;;;5072553;28;20048;-84
2022/04/03 04:50:03;;;;;;;12.75;11.45;;;;;;;;;;5088201;28;20062;-84
2022/04/03 04:52:30;;;;;;;11.73;10.63;;;;;;;;;;5070001;28;20427;-84
2022/04/03 04:54:57;;;;;;;10.77;9.68;;;;;;;;;;5065933;28;20036;-85
2022/04/03 04:57:25;;;;;;;11.85;10.68;;;;;;;;;;5084705;28;20500;-84
2022/04/03 04:59:53;;;;;;;12.68;11.40;;;;;;;;;;5051833;28;20063;-84
2022/04/03 05:02:20;;;;;;;12.07;10.95;;;;;;;;;;5087912;28;20124;-84
2022/04/03 05:04:47;;;;;;;12.25;11.05;;;;;;;;;;5071113;28;20085;-84
2022/04/03 05:07:15;;;;;;;12.27;11.07;;;;;;;;;;5071552;28;20506;-84
2022/04/03 05:09:43;;;;;;;11.93;10.82;;;;;;;;;;5084045;28;20056;-85
2022/04/03 05:12:12;;;;;;;12.30;11.07;;;;;;;;;;5069771;28;20040;-84
2022/04/03 05:14:39;;;;;;;11.00;10.02;;;;;;;;;;5049762;28;20059;-84
2022/04/03 05:17:07;;;;;;;11.82;10.73;;;;;;;;;;5062892;28;20729;-84
2022/04/03 05:19:35;;;;;;;14.05;12.15;;;;;;;;;;5062780;28;20044;-84
2022/04/03 05:22:02;;;;;;;12.57;11.48;;;;;;;;;;5059459;28;20068;-85
2022/04/03 05:24:30;;;;;;;10.93;9.85;;;;;;;;;;5079653;28;20047;-85
2022/04/03 05:26:57;;;;;;;12.77;11.48;;;;;;;;;;5063588;28;20043;-84
2022/04/03 05:29:24;;;;;;;13.38;12.02;;;;;;;;;;5078649;28;20043;-85
2022/04/03 05:31:52;;;;;;;12.98;11.77;;;;;;;;;;5079806;28;20546;-84
2022/04/03 05:34:19;;;;;;;11.88;10.77;;;;;;;;;;5059730;28;20045;-85
2022/04/03 05:36:47;;;;;;;14.23;11.77;;;;;;;;;;5078774;28;20399;-85
2022/04/03 05:39:14;;;;;;;12.70;11.43;;;;;;;;;;5068962;28;20043;-85
2022/04/03 05:41:41;;;;;;;10.88;9.88;;;;;;;;;;5055418;28;20797;-85
2022/04/03 05:44:09;;;;;;;11.32;10.27;;;;;;;;;;5061818;28;20052;-84
2022/04/03 05:46:36;;;;;;;11.85;10.75;;;;;;;;;;5080493;28;20040;-85
2022/04/03 05:49:03;;;;;;;12.82;11.68;;;;;;;;;;5077615;28;20636;-86
2022/04/03 05:51:31;;;;;;;12.05;10.95;;;;;;;;;;5063811;28;20484;-85
2022/04/03 05:53:58;;;;;;;11.73;10.63;;;;;;;;;;5085679;28;20036;-85
2022/04/03 05:56:27;;;;;;;10.18;9.18;;;;;;;;;;5051612;28;20068;-85
2022/04/03 05:58:54;;;;;;;13.23;11.82;;;;;;;;;;5037131;28;20128;-85
2022/04/03 06:01:22;;;;;;;9.18;8.30;;;;;;;;;;5084492;28;20489;-86
2022/04/03 06:03:50;;;;;;;11.07;10.05;;;;;;;;;;5084468;28;20048;-86
2022/04/03 06:06:17;;;;;;;11.80;10.10;;;;;;;;;;5070432;28;20048;-85
2022/04/03 06:08:45;;;;;;;12.38;11.27;;;;;;;;;;5043317;28;20080;-86
2022/04/03 06:11:13;;;;;;;12.65;11.45;;;;;;;;;;5082634;28;20047;-85
2022/04/03 06:13:40;;;;;;;11.98;10.77;;;;;;;;;;5083810;28;20044;-85
2022/04/03 06:16:08;;;;;;;10.75;9.55;;;;;;;;;;5067108;28;20514;-85
2022/04/03 06:18:35;;;;;;;11.73;10.60;;;;;;;;;;5084048;28;20045;-86
2022/04/03 06:21:02;;;;;;;12.95;11.65;;;;;;;;;;5075909;28;20039;-85
2022/04/03 06:23:30;;;;;;;10.60;9.50;;;;;;;;;;5087405;28;20631;-85
2022/04/03 06:25:58;;;;;;;11.98;10.88;;;;;;;;;;5088644;28;20131;-85
2022/04/03 06:28:25;;;;;;;12.05;10.85;;;;;;;;;;5072602;28;20048;-86
2022/04/03 06:30:54;;;;;;;11.15;10.13;;;;;;;;;;5078560;28;20046;-86
2022/04/03 06:33:22;;;;;;;10.73;9.82;;;;;;;;;;5057869;28;20068;-83
2022/04/03 06:35:49;;;;;;;12.43;11.32;;;;;;;;;;5074957;28;20420;-84
2022/04/03 06:38:17;;;;;;;10.70;9.70;;;;;;;;;;5078238;28;20052;-84
2022/04/03 06:40:52;;;;;;;10.57;9.48;;;;;;;;;;5071062;28;20109;-83
2022/04/03 06:43:24;;;;;;;9.93;8.93;;;;;;;;;;5078929;28;20145;-85
2022/04/03 06:45:51;;;;;;;11.93;9.88;;;;;;;;;;5087705;28;20127;-84
2022/04/03 06:48:19;;;;;;;11.10;9.23;;;;;;;;;;5093805;28;20044;-84
2022/04/03 06:50:48;;;;;;;10.60;9.60;;;;;;;;;;5060667;28;20512;-84
2022/04/03 06:53:15;;;;;;;9.60;8.70;;;;;;;;;;5089033;28;20048;-84
2022/04/03 06:55:42;;;;;;;9.82;8.85;;;;;;;;;;5054667;28;20050;-87
2022/04/03 06:58:14;;;;;;;14.63;12.88;;;;;;;;;;5092385;28;20040;-85
2022/04/03 07:00:42;;;;;;;10.50;9.48;;;;;;;;;;5078957;28;20071;-85
2022/04/03 07:03:09;;;;;;;9.07;8.23;;;;;;;;;;5073831;28;20040;-86
2022/04/03 07:05:37;;;;;;;8.65;7.85;;;;;;;;;;5081650;28;20044;-85
2022/04/03 07:08:04;;;;;;;9.52;8.63;;;;;;;;;;5071168;28;20158;-84
2022/04/03 07:10:33;;;;;;;8.50;7.72;;;;;;;;;;5083766;28;20044;-85
2022/04/03 07:13:00;;;;;;;8.90;8.07;;;;;;;;;;5078323;28;20037;-83
2022/04/03 07:15:27;;;;;;;15.90;8.30;;;;;;;;;;5093015;28;20036;-85
2022/04/03 07:17:54;;;;;;;8.38;7.10;;;;;;;;;;5093980;28;20036;-84
2022/04/03 07:20:22;;;;;;;9.30;7.15;;;;;;;;;;5093351;28;20143;-84
2022/04/03 07:22:49;;;;;;;8.95;8.10;;;;;;;;;;5072815;28;20606;-84
2022/04/03 07:25:21;;;;;;;;;;;;;;;;;;5084981;28;20047;-85
2022/04/03 07:27:49;;;;;;;13.43;10.57;;;;;;;;;;5068996;28;19924;-84
2022/04/03 07:30:16;;;;;;;7.65;6.55;;;;;;;;;;5068230;28;20141;-85
2022/04/03 07:32:44;;;;;;;8.55;7.63;;;;;;;;;;5063394;28;20040;-85
2022/04/03 07:35:14;;;;;;;8.82;7.15;;;;;;;;;;5080129;28;20032;-84
2022/04/03 07:37:41;;;;;;;7.30;6.60;;;;;;;;;;5076869;28;20122;-84
2022/04/03 07:40:09;;;;;;;7.97;7.18;;;;;;;;;;5083258;28;20037;-85
2022/04/03 07:42:39;;;;;;;5.53;5.03;;;;;;;;;;5048231;28;20044;-83
2022/04/03 07:45:16;;;;;;;6.32;5.75;;;;;;;;;;5105879;28;20032;-84
2022/04/03 07:47:47;;;;;;;7.78;5.95;;;;;;;;;;5102323;28;20032;-84
2022/04/03 07:50:16;;;;;;;9.70;8.65;;;;;;;;;;5107544;28;20024;-85
2022/04/03 07:52:43;;;;;;;6.78;6.18;;;;;;;;;;5113131;28;20016;-86
2022/04/03 07:55:10;;;;;;;7.38;6.72;;;;;;;;;;5102544;28;20096;-86
2022/04/03 07:57:39;;;;;;;7.57;6.88;;;;;;;;;;5096720;28;20048;-86
2022/04/03 08:00:13;;;;;;;10.32;7.78;;;;;;;;;;5100142;28;20049;-86
2022/04/03 08:02:42;;;;;;;6.85;6.25;;;;;;;;;;5092291;28;20051;-86
2022/04/03 08:05:10;;;;;;;6.15;5.65;;;;;;;;;;5083657;28;20495;-85
2022/04/03 08:07:38;;;;;;;6.85;6.25;;;;;;;;;;5059460;28;20046;-84
2022/04/03 08:10:08;;;;;;;6.75;6.10;;;;;;;;;;5079140;28;20047;-85
2022/04/03 08:12:36;;;;;;;6.68;6.10;;;;;;;;;;5085871;28;20746;-85
2022/04/03 08:15:04;;;;;;;10.68;7.13;;;;;;;;;;5083794;28;20036;-85
2022/04/03 08:17:32;;;;;;;7.32;6.72;;;;;;;;;;5064857;28;20035;-85
2022/04/03 08:20:00;;;;;;;6.57;5.97;;;;;;;;;;5065829;28;20047;-85
2022/04/03 08:22:27;;;;;;;8.45;7.65;;;;;;;;;;5049547;28;20066;-85
2022/04/03 08:24:54;;;;;;;7.30;6.60;;;;;;;;;;5044728;28;20047;-85
2022/04/03 08:27:23;;;;;;;7.03;6.32;;;;;;;;;;5082217;28;20127;-86
2022/04/03 08:29:50;;;;;;;7.05;6.45;;;;;;;;;;5084000;28;20047;-86
2022/04/03 08:32:17;;;;;;;6.38;5.75;;;;;;;;;;5046164;28;20044;-85
2022/04/03 08:35:15;;;;;;;7.18;6.57;;;;;;;;;;5048607;28;20115;-84
2022/04/03 08:37:42;;;;;;;7.45;6.75;;;;;;;;;;5081625;28;20039;-84
2022/04/03 08:40:17;;;;;;;6.07;5.57;;;;;;;;;;5094889;28;20047;-84
2022/04/03 08:42:45;;;;;;;7.50;6.80;;;;;;;;;;5086568;28;20144;-84
2022/04/03 08:45:13;;;;;;;5.90;5.38;;;;;;;;;;5085079;28;20055;-84
2022/04/03 08:47:47;;;;;;;8.80;7.00;;;;;;;;;;5070735;28;20491;-84
2022/04/03 08:50:15;;;;;;;7.88;6.30;;;;;;;;;;5077941;28;20126;-84
2022/04/03 08:52:47;;;;;;;8.20;7.07;;;;;;;;;;5056261;22;20053;-78
2022/04/03 08:55:15;;;;;;;6.13;5.53;;;;;;;;;;5044133;28;20036;-79
2022/04/03 08:57:48;;;;;;;6.97;5.88;;;;;;;;;;5025845;28;20036;-80
2022/04/03 09:00:16;;;;;;;7.57;6.25;;;;;;;;;;5047654;28;20037;-80
2022/04/03 09:02:49;;;;;;;7.25;5.68;;;;;;;;;;5031176;28;20133;-80
2022/04/03 09:05:17;;;;;;;5.63;4.95;;;;;;;;;;5049818;28;20136;-80
2022/04/03 09:07:46;;;;;;;5.78;5.28;;;;;;;;;;5028236;28;20048;-80
2022/04/03 09:10:37;;;;;;;6.95;6.25;;;;;;;;;;5033613;28;20116;-80
2022/04/03 09:13:05;;;;;;;11.50;5.95;;;;;;;;;;5038163;28;20040;-78
2022/04/03 09:15:33;;;;;;;6.28;5.68;;;;;;;;;;5052019;28;20041;-78
2022/04/03 09:18:01;;;;;;;8.68;6.20;;;;;;;;;;5055756;28;20055;-80
2022/04/03 09:20:30;;;;;;;6.70;5.35;;;;;;;;;;5051220;28;20522;-80
2022/04/03 09:23:02;;;;;;;6.55;4.90;;;;;;;;;;5049060;28;20041;-79
2022/04/03 09:25:37;;;;;;;5.63;5.22;;;;;;;;;;5063804;28;20094;-77
2022/04/03 09:28:08;;;;;;;6.10;5.60;;;;;;;;;;5064052;28;20080;-76
2022/04/03 09:30:36;;;;;;;6.70;6.03;;;;;;;;;;5055271;28;20047;-78
2022/04/03 09:33:06;;;;;;;7.20;5.47;;;;;;;;;;5051248;28;20050;-78
2022/04/03 09:35:54;;;;;;;6.55;6.00;;;;;;;;;;5052280;28;20041;-77
2022/04/03 09:38:22;;;;;;;8.57;5.68;;;;;;;;;;5052847;28;20065;-77
2022/04/03 09:40:50;;;;;;;5.28;4.80;;;;;;;;;;5050371;28;20043;-79
2022/04/03 09:43:22;;;;;;;5.85;5.18;;;;;;;;;;5053906;28;20053;-79
2022/04/03 09:46:00;;;;;;;5.88;4.93;;;;;;;;;;5034200;28;20084;-79
2022/04/03 09:48:32;;;;;;;5.13;4.63;;;;;;;;;;5053995;28;20045;-80
2022/04/03 09:51:10;;;;;;;5.50;5.00;;;;;;;;;;5034226;28;20044;-79
2022/04/03 09:53:41;;;;;;;6.88;6.18;;;;;;;;;;5054518;28;20139;-79
2022/04/03 09:56:08;;;;;;;6.53;5.70;;;;;;;;;;5037108;28;20029;-78
2022/04/03 09:58:51;;;;;;;5.80;5.30;;;;;;;;;;5052102;28;20773;-79
2022/04/03 10:01:23;;;;;;;6.05;4.25;;;;;;;;;;5046193;28;20589;-79
2022/04/03 10:04:00;;;;;;;9.15;7.30;;;;;;;;;;5046668;28;20411;-78
2022/04/03 10:06:29;;;;;;;9.63;5.90;;;;;;;;;;5050380;28;20048;-78
2022/04/03 10:09:11;;;;;;;5.40;4.40;;;;;;;;;;5076493;22;20045;-82
2022/04/03 10:11:41;;;;;;;5.15;4.75;;;;;;;;;;5050337;28;20094;-80
2022/04/03 10:14:14;;;;;;;7.20;5.97;;;;;;;;;;5049128;28;20139;-82
2022/04/03 10:16:42;;;;;;;5.78;5.25;;;;;;;;;;5065690;28;20125;-81
2022/04/03 10:19:10;;;;;;;6.00;5.40;;;;;;;;;;5055724;28;20065;-80
2022/04/03 10:21:40;;;;;;;7.78;5.88;;;;;;;;;;5037906;28;20052;-79
2022/04/03 10:24:15;;;;;;;8.63;6.03;;;;;;;;;;5037589;28;20723;-79
2022/04/03 10:26:44;;;;;;;6.47;5.85;;;;;;;;;;5006524;28;20071;-79
2022/04/03 10:29:12;;;;;;;7.65;5.95;;;;;;;;;;5035325;28;20061;-80
2022/04/03 10:31:40;;;;;;;6.28;5.68;;;;;;;;;;5022051;28;20465;-81
2022/04/03 10:34:14;;;;;;;6.53;6.00;;;;;;;;;;5018832;28;20044;-80
2022/04/03 10:36:47;;;;;;;3.95;3.65;;;;;;;;;;5020725;28;20041;-81
2022/04/03 10:39:22;;;;;;;4.10;3.80;;;;;;;;;;5039159;28;20123;-82
2022/04/03 10:42:12;;;;;;;9.48;5.15;;;;;;;;;;5032210;28;20044;-82
2022/04/03 10:44:39;;;;;;;6.53;5.68;;;;;;;;;;5021497;28;20048;-82
2022/04/03 10:47:07;;;;;;;6.78;5.07;;;;;;;;;;5003707;28;20107;-82
2022/04/03 10:49:37;;;;;;;4.93;4.22;;;;;;;;;;5036798;28;20100;-81
2022/04/03 10:52:07;;;;;;;8.65;5.63;;;;;;;;;;5035598;28;20052;-81
2022/04/03 10:54:49;;;;;;;5.88;5.22;;;;;;;;;;5039724;28;20108;-81
2022/04/03 10:57:36;;;;;;;5.65;5.15;;;;;;;;;;5037675;28;20048;-82
2022/04/03 11:00:12;;;;;;;5.30;4.80;;;;;;;;;;5009239;28;20041;-82
2022/04/03 11:02:41;;;;;;;5.30;4.80;;;;;;;;;;5024147;28;20394;-82
2022/04/03 11:05:24;;;;;;;7.05;6.40;;;;;;;;;;5009082;28;20048;-81
2022/04/03 11:08:12;;;;;;;6.20;5.63;;;;;;;;;;5020697;28;20053;-82
2022/04/03 11:10:54;;;;;;;6.28;5.68;;;;;;;;;;5040340;28;20081;-81
2022/04/03 11:13:31;;;;;;;8.30;5.38;;;;;;;;;;5021739;28;20096;-80
2022/04/03 11:16:01;;;;;;;8.75;5.93;;;;;;;;;;5023765;28;20041;-80
2022/04/03 11:18:29;;;;;;;7.38;6.30;;;;;;;;;;5038660;28;20064;-81
2022/04/03 11:21:10;;;;;;;7.00;5.85;;;;;;;;;;5023231;28;20550;-81
2022/04/03 11:23:40;;;;;;;7.50;6.78;;;;;;;;;;5038529;28;20041;-81
2022/04/03 11:26:08;;;;;;;7.22;6.53;;;;;;;;;;5020967;28;20041;-83
2022/04/03 11:28:36;;;;;;;6.40;5.80;;;;;;;;;;5039896;28;20049;-83
2022/04/03 11:31:04;;;;;;;8.98;8.10;;;;;;;;;;5021928;28;20048;-82
2022/04/03 11:33:33;;;;;;;6.93;6.22;;;;;;;;;;5040846;28;20521;-82
2022/04/03 11:36:14;;;;;;;7.63;6.85;;;;;;;;;;5042334;28;20683;-82
2022/04/03 11:38:46;;;;;;;10.48;6.40;;;;;;;;;;5045512;28;20044;-82
2022/04/03 11:41:15;;;;;;;6.50;5.90;;;;;;;;;;5042380;28;20040;-82
2022/04/03 11:43:43;;;;;;;7.55;6.75;;;;;;;;;;5025577;28;20064;-82
2022/04/03 11:46:10;;;;;;;7.30;6.50;;;;;;;;;;5040882;28;20072;-82
2022/04/03 11:48:48;;;;;;;7.55;6.85;;;;;;;;;;5026501;28;20475;-81
2022/04/03 11:51:24;;;;;;;10.00;7.20;;;;;;;;;;5024566;28;20059;-80
2022/04/03 11:53:59;;;;;;;7.90;7.10;;;;;;;;;;5007207;28;20041;-82
2022/04/03 11:56:31;;;;;;;6.03;4.55;;;;;;;;;;5055932;28;20045;-82
2022/04/03 11:58:59;;;;;;;;;;;;;;;;;;5017118;28;20113;-81
2022/04/03 12:01:28;;;;;;;6.40;5.80;;;;;;;;;;5034040;28;20530;-82
2022/04/03 12:04:08;;;;;;;8.00;5.43;;;;;;;;;;5051042;28;20041;-81
2022/04/03 12:06:37;;;;;;;5.47;4.97;;;;;;;;;;5032801;28;20504;-82
2022/04/03 12:09:10;;;;;;;8.10;5.60;;;;;;;;;;5016756;28;20056;-81
2022/04/03 12:11:39;;;;;;;5.90;5.28;;;;;;;;;;5032803;28;20036;-80
2022/04/03 12:14:07;;;;;;;6.43;5.75;;;;;;;;;;5050125;28;20746;-80
2022/04/03 12:16:40;;;;;;;5.43;4.88;;;;;;;;;;5050534;28;20072;-82
2022/04/03 12:19:09;;;;;;;7.10;5.05;;;;;;;;;;5050812;28;20030;-82
2022/04/03 12:21:37;;;;;;;6.05;5.45;;;;;;;;;;5024196;28;20044;-81
2022/04/03 12:24:06;;;;;;;4.95;4.47;;;;;;;;;;5031975;28;20071;-82
2022/04/03 12:26:43;;;;;;;5.85;4.97;;;;;;;;;;5049212;28;20041;-81
2022/04/03 12:29:11;;;;;;;5.75;5.18;;;;;;;;;;5050754;28;20048;-83
2022/04/03 12:31:40;;;;;;;5.60;5.20;;;;;;;;;;5032336;28;20738;-80
2022/04/03 12:34:08;;;;;;;6.15;5.65;;;;;;;;;;5049778;28;20393;-81
2022/04/03 12:36:49;;;;;;;8.48;5.68;;;;;;;;;;5049705;28;20047;-81
2022/04/03 12:39:31;;;;;;;4.13;3.67;;;;;;;;;;5050057;28;20067;-82
2022/04/03 12:42:09;;;;;;;6.68;5.35;;;;;;;;;;5049640;28;20491;-81
2022/04/03 12:44:59;;;;;;;5.80;5.03;;;;;;;;;;5049768;28;20037;-82
2022/04/03 12:47:29;;;;;;;6.00;5.38;;;;;;;;;;5031211;28;20049;-82
2022/04/03 12:50:06;;;;;;;5.22;4.75;;;;;;;;;;5049142;28;20048;-81
2022/04/03 12:53:02;;;;;;;4.93;4.43;;;;;;;;;;5024218;28;20048;-81
2022/04/03 12:55:32;;;;;;;6.20;5.22;;;;;;;;;;5027518;28;20049;-81
2022/04/03 13:00:48;;;;;;;4.97;4.57;;;;;;;;;;5047396;28;20041;-82
2022/04/03 13:03:54;;;;;;;4.40;4.00;;;;;;;;;;5023397;28;20049;-78
2022/04/03 13:06:33;;;;;;;3.78;3.47;;;;;;;;;;5048347;28;20049;-82
2022/04/03 13:09:05;;;;;;;5.82;4.50;;;;;;;;;;5014929;28;20092;-80
2022/04/03 13:11:40;;;;;;;7.20;4.78;;;;;;;;;;5029367;28;20530;-81
2022/04/03 13:14:23;;;;;;;4.90;4.50;;;;;;;;;;5028590;28;20145;-83
2022/04/03 13:16:54;;;;;;;6.70;4.97;;;;;;;;;;5011918;28;20140;-82
2022/04/03 13:19:29;;;;;;;5.28;3.50;;;;;;;;;;5056945;28;20046;-84
2022/04/03 13:21:57;;;;;;;7.40;4.43;;;;;;;;;;5017553;28;20052;-81
2022/04/03 13:24:27;;;;;;;4.60;4.30;;;;;;;;;;5051693;28;20049;-81
2022/04/03 13:26:55;;;;;;;4.93;4.53;;;;;;;;;;5012476;28;20045;-81
2022/04/03 13:29:23;;;;;;;7.03;5.40;;;;;;;;;;5046505;28;20060;-82
2022/04/03 13:31:52;;;;;;;4.93;4.43;;;;;;;;;;4997592;28;20053;-82
2022/04/03 13:34:20;;;;;;;5.45;4.95;;;;;;;;;;5013309;28;20041;-82
2022/04/03 13:36:47;;;;;;;4.55;4.15;;;;;;;;;;5011271;28;20048;-83
2022/04/03 13:39:15;;;;;;;7.20;4.00;;;;;;;;;;5014307;28;20072;-82
2022/04/03 13:41:45;;;;;;;4.20;3.80;;;;;;;;;;5046966;28;20037;-82
2022/04/03 13:44:12;;;;;;;5.30;4.80;;;;;;;;;;5038555;28;20048;-82
2022/04/03 13:46:42;;;;;;;5.43;4.93;;;;;;;;;;5027171;28;20535;-81
2022/04/03 13:49:10;;;;;;;6.93;6.28;;;;;;;;;;5020815;28;20918;-82
2022/04/03 13:51:38;;;;;;;5.70;4.97;;;;;;;;;;5037554;28;20046;-81
2022/04/03 13:54:08;;;;;;;5.05;4.63;;;;;;;;;;5037977;28;20068;-79
2022/04/03 13:56:37;;;;;;;4.90;4.50;;;;;;;;;;5001029;28;20576;-80
2022/04/03 13:59:05;;;;;;;4.80;4.40;;;;;;;;;;5036175;28;20971;-81
2022/04/03 14:01:35;;;;;;;6.35;4.53;;;;;;;;;;5036075;28;20480;-82
2022/04/03 14:04:04;;;;;;;4.78;4.43;;;;;;;;;;5034080;28;20132;-80
2022/04/03 14:06:40;;;;;;;4.53;4.22;;;;;;;;;;5006031;28;20682;-82
2022/04/03 14:09:09;;;;;;;5.75;5.25;;;;;;;;;;5039272;28;20037;-81
2022/04/03 14:11:37;;;;;;;7.93;4.82;;;;;;;;;;5019877;28;20048;-80
2022/04/03 14:14:05;;;;;;;5.78;5.28;;;;;;;;;;5006344;28;20591;-81
2022/04/03 14:16:38;;;;;;;7.78;5.35;;;;;;;;;;5016733;28;20126;-82
2022/04/03 14:19:09;;;;;;;5.13;4.72;;;;;;;;;;5029099;28;20037;-82
2022/04/03 14:21:39;;;;;;;4.55;4.20;;;;;;;;;;5041596;28;20089;-82
2022/04/03 14:24:10;;;;;;;5.78;4.07;;;;;;;;;;5027244;28;20134;-82
2022/04/03 14:26:45;;;;;;;4.90;4.50;;;;;;;;;;5035450;28;20618;-81
2022/04/03 14:29:13;;;;;;;4.65;4.25;;;;;;;;;;5003543;28;20052;-81
2022/04/03 14:31:41;;;;;;;5.35;4.78;;;;;;;;;;5032813;28;20057;-81
2022/04/03 14:34:09;;;;;;;5.93;5.32;;;;;;;;;;5017812;28;20040;-82
2022/04/03 14:36:36;;;;;;;6.82;5.18;;;;;;;;;;5018846;28;20045;-81
2022/04/03 14:39:04;;;;;;;7.43;5.13;;;;;;;;;;5036787;28;20048;-82
2022/04/03 14:41:34;;;;;;;5.60;5.00;;;;;;;;;;5008366;28;20440;-81
2022/04/03 14:44:02;;;;;;;5.45;4.95;;;;;;;;;;5017904;28;20428;-82
2022/04/03 14:46:30;;;;;;;4.88;4.43;;;;;;;;;;5018082;28;20458;-81
2022/04/03 14:48:58;;;;;;;5.95;5.40;;;;;;;;;;5034505;28;20037;-82